Time;durP1;ratioP1;P1;durP2;ratioP2;P2;SDS_P1;SDS_P2;PMS_P1;PMS_P2;Temp;Humidity;BMP_temperature;BMP_pressure;BME280_temperature;BME280_humidity;BME280_pressure;Samples;Min_cycle;Max_cycle;Signal;HPM_P1;HPM_P2
2021/07/04 00:01:30;;;;;;;;;;;18.70;99.90;;;;;;5052129;28;19956;-73
2021/07/04 00:03:56;;;;;;;;;;;18.70;99.90;;;;;;5055128;28;20006;-76
2021/07/04 00:06:22;;;;;;;;;;;18.60;99.90;;;;;;5056843;28;19897;-73
2021/07/04 00:11:31;;;;;;;;;;;18.60;99.90;;;;;;5055809;28;19980;-77
2021/07/04 00:13:57;;;;;;;;;;;18.60;99.90;;;;;;5056594;28;19909;-77
2021/07/04 00:16:22;;;;;;;;;;;18.60;99.90;;;;;;5073840;28;19916;-77
2021/07/04 00:18:48;;;;;;;;;;;18.60;99.90;;;;;;5056274;28;19908;-77
2021/07/04 00:21:13;;;;;;;;;;;18.50;99.90;;;;;;5051959;28;19904;-77
2021/07/04 00:23:39;;;;;;;;;;;18.50;99.90;;;;;;5058368;28;19916;-77
2021/07/04 00:26:05;;;;;;;;;;;18.50;99.90;;;;;;5056846;28;19900;-77
2021/07/04 00:28:31;;;;;;;;;;;18.50;99.90;;;;;;5055323;28;19913;-78
2021/07/04 00:30:56;;;;;;;;;;;18.50;99.90;;;;;;5056245;28;19948;-76
2021/07/04 00:33:22;;;;;;;;;;;18.40;99.90;;;;;;5049512;28;19905;-74
2021/07/04 00:35:47;;;;;;;;;;;18.40;99.90;;;;;;5044061;28;19997;-76
2021/07/04 00:38:13;;;;;;;;;;;18.40;99.90;;;;;;5039153;28;19913;-76
2021/07/04 00:40:40;;;;;;;;;;;18.40;99.90;;;;;;5041273;28;19916;-76
2021/07/04 00:43:07;;;;;;;;;;;18.40;99.90;;;;;;5038420;28;19963;-77
2021/07/04 00:45:33;;;;;;;;;;;18.40;99.90;;;;;;5037863;28;20351;-76
2021/07/04 00:47:58;;;;;;;;;;;18.50;99.90;;;;;;5037217;28;19909;-76
2021/07/04 00:50:28;;;;;;;;;;;18.40;99.90;;;;;;5038156;28;19917;-76
2021/07/04 00:52:54;;;;;;;;;;;18.40;99.90;;;;;;5051499;28;20383;-76
2021/07/04 00:55:19;;;;;;;;;;;18.40;99.90;;;;;;5051523;28;19903;-76
2021/07/04 00:57:46;;;;;;;;;;;18.40;99.90;;;;;;5038422;28;19912;-76
2021/07/04 01:00:13;;;;;;;;;;;18.40;99.90;;;;;;5036780;28;19991;-77
2021/07/04 01:02:39;;;;;;;;;;;18.40;99.90;;;;;;5037117;28;19904;-78
2021/07/04 01:05:07;;;;;;;;;;;18.40;99.90;;;;;;5038856;28;19909;-76
2021/07/04 01:07:33;;;;;;;;;;;18.40;99.90;;;;;;5038055;28;19909;-77
2021/07/04 01:09:58;;;;;;;;;;;18.40;99.90;;;;;;5039127;28;19909;-77
2021/07/04 01:12:24;;;;;;;;;;;18.40;99.90;;;;;;5038980;28;19952;-78
2021/07/04 01:14:50;;;;;;;;;;;18.40;99.90;;;;;;5038377;28;20342;-78
2021/07/04 01:17:15;;;;;;;;;;;18.40;99.90;;;;;;5034036;28;19921;-78
2021/07/04 01:19:41;;;;;;;;;;;18.40;99.90;;;;;;5035000;28;19916;-79
2021/07/04 01:22:07;;;;;;;;;;;18.40;99.90;;;;;;5041622;28;19905;-78
2021/07/04 01:24:32;;;;;;;;;;;18.30;99.90;;;;;;5040813;28;19948;-77
2021/07/04 01:26:58;;;;;;;;;;;18.30;99.90;;;;;;5040399;28;19905;-78
2021/07/04 01:29:23;;;;;;;;;;;18.30;99.90;;;;;;5038534;28;19913;-78
2021/07/04 01:31:49;;;;;;;;;;;18.30;99.90;;;;;;5039548;28;19951;-78
2021/07/04 01:34:14;;;;;;;;;;;18.30;99.90;;;;;;5039071;28;20003;-77
2021/07/04 01:36:40;;;;;;;;;;;18.30;99.90;;;;;;5050742;28;19913;-78
2021/07/04 01:39:06;;;;;;;;;;;18.20;99.90;;;;;;5046085;28;20273;-78
2021/07/04 01:41:33;;;;;;;;;;;18.20;99.90;;;;;;5034330;28;19909;-78
2021/07/04 01:43:59;;;;;;;;;;;18.20;99.90;;;;;;5034684;28;19967;-78
2021/07/04 01:46:24;;;;;;;;;;;18.10;99.90;;;;;;5037126;28;20332;-78
2021/07/04 01:48:50;;;;;;;;;;;18.10;99.90;;;;;;5034392;28;19921;-78
2021/07/04 01:51:16;;;;;;;;;;;18.10;99.90;;;;;;5034387;28;19905;-77
2021/07/04 01:53:41;;;;;;;;;;;18.20;99.90;;;;;;5034876;28;19909;-78
2021/07/04 01:56:07;;;;;;;;;;;18.10;99.90;;;;;;5035200;28;19920;-77
2021/07/04 01:58:36;;;;;;;;;;;18.20;99.90;;;;;;5034901;28;19921;-77
2021/07/04 02:01:04;;;;;;;;;;;18.20;99.90;;;;;;5034340;28;19905;-77
2021/07/04 02:03:30;;;;;;;;;;;18.20;99.90;;;;;;5034057;28;19913;-77
2021/07/04 02:05:55;;;;;;;;;;;18.20;99.90;;;;;;5036717;28;19912;-77
2021/07/04 02:08:21;;;;;;;;;;;18.20;99.90;;;;;;5036372;28;19908;-77
2021/07/04 02:10:46;;;;;;;;;;;18.10;99.90;;;;;;5034348;28;19917;-76
2021/07/04 02:13:12;;;;;;;;;;;18.20;99.90;;;;;;5034247;28;19913;-76
2021/07/04 02:15:41;;;;;;;;;;;18.20;99.90;;;;;;5033375;28;19909;-77
2021/07/04 02:18:08;;;;;;;;;;;18.20;99.90;;;;;;5033617;28;20023;-76
2021/07/04 02:20:35;;;;;;;;;;;18.20;99.90;;;;;;5038816;28;20008;-75
2021/07/04 02:23:09;;;;;;;;;;;18.20;99.90;;;;;;5034058;28;20366;-76
2021/07/04 02:25:35;;;;;;;;;;;18.20;99.90;;;;;;5048532;28;19960;-76
2021/07/04 02:28:01;;;;;;;;;;;18.20;99.90;;;;;;5035565;28;19909;-76
2021/07/04 02:30:27;;;;;;;;;;;18.20;99.90;;;;;;5033690;28;19912;-76
2021/07/04 02:32:52;;;;;;;;;;;18.30;99.90;;;;;;5032604;28;19920;-76
2021/07/04 02:35:19;;;;;;;;;;;18.30;99.90;;;;;;5039267;28;19952;-76
2021/07/04 02:37:45;;;;;;;;;;;18.30;99.90;;;;;;5033155;28;19921;-76
2021/07/04 02:40:10;;;;;;;;;;;18.20;99.90;;;;;;5037762;28;20254;-76
2021/07/04 02:42:36;;;;;;;;;;;18.30;99.90;;;;;;5036999;28;19905;-76
2021/07/04 02:45:02;;;;;;;;;;;18.30;99.90;;;;;;5033585;28;20003;-76
2021/07/04 02:47:28;;;;;;;;;;;18.30;99.90;;;;;;5032440;28;19917;-76
2021/07/04 02:49:54;;;;;;;;;;;18.30;99.90;;;;;;5033936;28;19981;-76
2021/07/04 02:52:19;;;;;;;;;;;18.30;99.90;;;;;;5039341;28;19909;-75
2021/07/04 02:54:45;;;;;;;;;;;18.30;99.90;;;;;;5044746;28;19978;-75
2021/07/04 02:57:11;;;;;;;;;;;18.30;99.90;;;;;;5046725;28;19913;-75
2021/07/04 02:59:36;;;;;;;;;;;18.30;99.90;;;;;;5035998;28;20285;-75
2021/07/04 03:02:02;;;;;;;;;;;18.30;99.90;;;;;;5036664;28;19913;-75
2021/07/04 03:04:27;;;;;;;;;;;18.30;99.90;;;;;;5040552;28;19916;-75
2021/07/04 03:06:55;;;;;;;;;;;18.40;99.90;;;;;;5036528;28;20273;-75
2021/07/04 03:09:20;;;;;;;;;;;18.40;99.90;;;;;;5034683;28;19916;-74
2021/07/04 03:11:46;;;;;;;;;;;18.30;99.90;;;;;;5035230;28;19909;-75
2021/07/04 03:14:11;;;;;;;;;;;18.40;99.90;;;;;;5036220;28;19909;-74
2021/07/04 03:16:36;;;;;;;;;;;18.40;99.90;;;;;;5036886;28;19913;-75
2021/07/04 03:19:02;;;;;;;;;;;18.30;99.90;;;;;;5037361;28;19913;-75
2021/07/04 03:21:28;;;;;;;;;;;18.30;99.90;;;;;;5036771;28;19909;-75
2021/07/04 03:23:53;;;;;;;;;;;18.30;99.90;;;;;;5034625;28;19916;-75
2021/07/04 03:26:19;;;;;;;;;;;18.30;99.90;;;;;;5036439;28;20425;-75
2021/07/04 03:28:45;;;;;;;;;;;18.30;99.90;;;;;;5036505;28;20011;-75
2021/07/04 03:31:10;;;;;;;;;;;18.20;99.90;;;;;;5034664;28;19948;-74
2021/07/04 03:33:36;;;;;;;;;;;18.20;99.90;;;;;;5044486;28;19909;-74
2021/07/04 03:36:01;;;;;;;;;;;18.20;99.90;;;;;;5037197;28;20023;-74
2021/07/04 03:38:27;;;;;;;;;;;18.20;99.90;;;;;;5034936;28;19913;-75
2021/07/04 03:40:52;;;;;;;;;;;18.10;99.90;;;;;;5035756;28;20326;-74
2021/07/04 03:43:18;;;;;;;;;;;18.10;99.90;;;;;;5035448;28;20349;-75
2021/07/04 03:45:43;;;;;;;;;;;18.10;99.90;;;;;;5037097;28;19974;-75
2021/07/04 03:48:09;;;;;;;;;;;18.10;99.90;;;;;;5035406;28;20022;-74
2021/07/04 03:50:35;;;;;;;;;;;18.10;99.90;;;;;;5036907;28;19909;-74
2021/07/04 03:53:02;;;;;;;;;;;18.10;99.90;;;;;;5035567;28;20342;-75
2021/07/04 03:55:28;;;;;;;;;;;18.10;99.90;;;;;;5038126;28;19909;-74
2021/07/04 03:57:53;;;;;;;;;;;18.00;99.90;;;;;;5037622;28;19932;-75
2021/07/04 04:00:20;;;;;;;;;;;18.00;99.90;;;;;;5035056;28;19955;-75
2021/07/04 04:02:45;;;;;;;;;;;18.00;99.90;;;;;;5038292;28;19909;-74
2021/07/04 04:05:11;;;;;;;;;;;18.00;99.90;;;;;;5036345;28;20325;-75
2021/07/04 04:07:36;;;;;;;;;;;18.00;99.90;;;;;;5034530;28;19905;-75
2021/07/04 04:10:06;;;;;;;;;;;18.00;99.90;;;;;;5033930;28;19913;-75
2021/07/04 04:12:32;;;;;;;;;;;18.00;99.90;;;;;;5034892;28;19909;-74
2021/07/04 04:15:00;;;;;;;;;;;18.00;99.90;;;;;;5035304;28;19916;-74
2021/07/04 04:17:26;;;;;;;;;;;18.00;99.90;;;;;;5035391;28;19913;-74
2021/07/04 04:19:51;;;;;;;;;;;18.10;99.90;;;;;;5040420;28;19909;-75
2021/07/04 04:22:17;;;;;;;;;;;18.10;99.90;;;;;;5038431;28;20289;-74
2021/07/04 04:24:42;;;;;;;;;;;18.00;99.90;;;;;;5033705;28;20002;-75
2021/07/04 04:27:08;;;;;;;;;;;18.00;99.90;;;;;;5037920;28;19909;-75
2021/07/04 04:29:34;;;;;;;;;;;18.00;99.90;;;;;;5034719;28;19915;-75
2021/07/04 04:31:59;;;;;;;;;;;18.00;99.90;;;;;;5034552;28;19915;-75
2021/07/04 04:34:25;;;;;;;;;;;18.00;99.90;;;;;;5039451;28;19944;-74
2021/07/04 04:36:50;;;;;;;;;;;18.00;99.90;;;;;;5034802;28;19923;-75
2021/07/04 04:39:15;;;;;;;;;;;18.00;99.90;;;;;;5045606;28;19915;-75
2021/07/04 04:41:41;;;;;;;;;;;18.10;99.90;;;;;;5035626;28;19963;-74
2021/07/04 04:44:07;;;;;;;;;;;18.20;99.90;;;;;;5036206;28;20350;-75
2021/07/04 04:46:33;;;;;;;;;;;18.20;99.90;;;;;;5036761;28;19924;-74
2021/07/04 04:48:59;;;;;;;;;;;18.30;99.90;;;;;;5033463;28;20251;-75
2021/07/04 04:51:24;;;;;;;;;;;18.40;99.90;;;;;;5025692;28;20293;-74
2021/07/04 04:53:50;;;;;;;;;;;18.50;99.90;;;;;;5027088;28;19917;-75
2021/07/04 04:56:16;;;;;;;;;;;18.50;99.90;;;;;;5034010;28;19916;-75
2021/07/04 04:58:41;;;;;;;;;;;18.50;99.90;;;;;;5028754;28;19913;-74
2021/07/04 05:01:07;;;;;;;;;;;18.60;99.90;;;;;;5033465;28;20032;-75
2021/07/04 05:03:32;;;;;;;;;;;18.60;99.90;;;;;;5034126;28;19913;-75
2021/07/04 05:05:58;;;;;;;;;;;18.60;99.90;;;;;;5034055;28;19909;-74
2021/07/04 05:08:25;;;;;;;;;;;18.60;99.90;;;;;;5033908;28;19909;-74
2021/07/04 05:10:52;;;;;;;;;;;18.60;99.90;;;;;;5032252;28;19917;-74
2021/07/04 05:13:18;;;;;;;;;;;18.60;99.90;;;;;;5032742;28;20401;-74
2021/07/04 05:15:43;;;;;;;;;;;18.60;99.90;;;;;;5033358;28;19909;-74
2021/07/04 05:18:09;;;;;;;;;;;18.60;99.90;;;;;;5033792;28;19919;-75
2021/07/04 05:20:34;;;;;;;;;;;18.70;99.90;;;;;;5033216;28;19909;-74
2021/07/04 05:23:00;;;;;;;;;;;18.60;99.90;;;;;;5033554;28;19944;-74
2021/07/04 05:25:25;;;;;;;;;;;18.60;99.90;;;;;;5033659;28;19916;-74
2021/07/04 05:27:51;;;;;;;;;;;18.60;99.90;;;;;;5031540;28;19943;-74
2021/07/04 05:30:16;;;;;;;;;;;18.60;99.90;;;;;;5033622;28;19963;-74
2021/07/04 05:32:42;;;;;;;;;;;18.70;99.90;;;;;;5032299;28;19917;-74
2021/07/04 05:35:08;;;;;;;;;;;18.70;99.90;;;;;;5031206;28;19909;-74
2021/07/04 05:37:34;;;;;;;;;;;18.70;99.90;;;;;;5033653;28;19913;-74
2021/07/04 05:40:02;;;;;;;;;;;18.60;99.90;;;;;;5033174;28;19916;-75
2021/07/04 05:42:28;;;;;;;;;;;18.60;99.90;;;;;;5033187;28;20301;-75
2021/07/04 05:44:53;;;;;;;;;;;18.60;99.90;;;;;;5030028;28;19927;-75
2021/07/04 05:47:19;;;;;;;;;;;18.60;99.90;;;;;;5032191;28;19949;-75
2021/07/04 05:49:44;;;;;;;;;;;18.70;99.90;;;;;;5031581;28;20353;-75
2021/07/04 05:52:10;;;;;;;;;;;18.70;99.90;;;;;;5033102;28;19913;-73
2021/07/04 05:54:35;;;;;;;;;;;18.70;99.90;;;;;;5040279;28;19905;-74
2021/07/04 05:57:05;;;;;;;;;;;18.70;99.90;;;;;;5033614;28;20342;-74
2021/07/04 05:59:32;;;;;;;;;;;18.70;99.90;;;;;;5032610;28;19909;-74
2021/07/04 06:01:57;;;;;;;;;;;18.70;99.90;;;;;;5030705;28;19909;-74
2021/07/04 06:04:23;;;;;;;;;;;18.70;99.90;;;;;;5033069;28;19963;-75
2021/07/04 06:06:48;;;;;;;;;;;18.70;99.90;;;;;;5032459;28;19913;-74
2021/07/04 06:09:14;;;;;;;;;;;18.60;99.90;;;;;;5032592;28;19921;-74
2021/07/04 06:11:39;;;;;;;;;;;18.60;99.90;;;;;;5032361;28;20000;-75
2021/07/04 06:14:05;;;;;;;;;;;18.60;99.90;;;;;;5029487;28;20003;-74
2021/07/04 06:16:30;;;;;;;;;;;18.60;99.90;;;;;;5033217;28;19963;-75
2021/07/04 06:18:56;;;;;;;;;;;18.60;99.90;;;;;;5032426;28;19909;-75
2021/07/04 06:21:21;;;;;;;;;;;18.60;99.90;;;;;;5027083;28;20096;-76
2021/07/04 06:23:47;;;;;;;;;;;18.60;99.90;;;;;;5032979;28;19909;-74
2021/07/04 06:26:12;;;;;;;;;;;18.80;99.90;;;;;;5029554;28;19962;-75
2021/07/04 06:28:38;;;;;;;;;;;19.10;99.90;;;;;;5015931;28;19917;-75
2021/07/04 06:31:03;;;;;;;;;;;19.90;99.90;;;;;;5033447;28;19905;-75
2021/07/04 06:33:29;;;;;;;;;;;21.40;99.90;;;;;;5036118;28;19915;-75
2021/07/04 06:35:54;;;;;;;;;;;21.80;99.90;;;;;;5035304;28;19909;-75
2021/07/04 06:38:20;;;;;;;;;;;21.60;99.90;;;;;;5032073;28;20226;-76
2021/07/04 06:40:45;;;;;;;;;;;22.10;99.90;;;;;;5034663;28;19962;-75
2021/07/04 06:43:11;;;;;;;;;;;22.00;99.90;;;;;;5036184;28;20404;-75
2021/07/04 06:45:36;;;;;;;;;;;21.60;99.90;;;;;;5036361;28;20312;-76
2021/07/04 06:48:02;;;;;;;;;;;21.90;99.90;;;;;;5034778;28;19921;-75
2021/07/04 06:50:27;;;;;;;;;;;22.90;99.90;;;;;;5034406;28;20340;-75
2021/07/04 06:52:53;;;;;;;;;;;22.90;99.90;;;;;;5032850;28;19948;-75
2021/07/04 06:55:18;;;;;;;;;;;22.70;99.90;;;;;;5035450;28;19916;-75
2021/07/04 06:57:44;;;;;;;;;;;22.70;99.90;;;;;;5031758;28;19921;-75
2021/07/04 07:00:11;;;;;;;;;;;22.40;99.90;;;;;;5046287;28;20309;-75
2021/07/04 07:02:36;;;;;;;;;;;22.30;99.90;;;;;;5033440;28;19908;-75
2021/07/04 07:05:03;;;;;;;;;;;22.10;99.90;;;;;;5034967;28;19920;-75
2021/07/04 07:07:28;;;;;;;;;;;22.20;99.90;;;;;;5035485;28;19999;-75
2021/07/04 07:09:54;;;;;;;;;;;22.00;99.90;;;;;;5033728;28;19964;-76
2021/07/04 07:12:19;;;;;;;;;;;21.80;99.90;;;;;;5034579;28;20365;-75
2021/07/04 07:14:45;;;;;;;;;;;21.50;99.90;;;;;;5034386;28;20255;-75
2021/07/04 07:17:10;;;;;;;;;;;21.30;99.90;;;;;;5034673;28;20358;-75
2021/07/04 07:19:36;;;;;;;;;;;21.30;99.90;;;;;;5034727;28;19909;-74
2021/07/04 07:22:01;;;;;;;;;;;21.30;99.90;;;;;;5034591;28;20431;-74
2021/07/04 07:24:28;;;;;;;;;;;21.20;99.90;;;;;;5034116;28;19909;-75
2021/07/04 07:26:53;;;;;;;;;;;21.70;99.90;;;;;;5033894;28;19908;-75
2021/07/04 07:29:19;;;;;;;;;;;22.70;99.90;;;;;;5033785;28;19996;-75
2021/07/04 07:31:45;;;;;;;;;;;23.30;99.90;;;;;;5036207;28;20317;-74
2021/07/04 07:34:10;;;;;;;;;;;23.50;99.90;;;;;;5034552;28;19909;-75
2021/07/04 07:36:35;;;;;;;;;;;23.60;99.90;;;;;;5034143;28;20348;-75
2021/07/04 07:39:01;;;;;;;;;;;23.30;99.90;;;;;;5034671;28;19928;-75
2021/07/04 07:41:27;;;;;;;;;;;23.30;99.90;;;;;;5033454;28;19909;-75
2021/07/04 07:43:52;;;;;;;;;;;23.70;99.90;;;;;;5032964;28;19922;-75
2021/07/04 07:46:18;;;;;;;;;;;24.20;99.90;;;;;;5031721;28;19961;-75
2021/07/04 07:48:43;;;;;;;;;;;24.00;99.90;;;;;;5033503;28;19909;-75
2021/07/04 07:51:09;;;;;;;;;;;23.60;99.90;;;;;;5034808;28;19999;-75
2021/07/04 07:53:34;;;;;;;;;;;23.30;99.90;;;;;;5035843;28;19916;-76
2021/07/04 07:56:00;;;;;;;;;;;22.90;99.90;;;;;;5034799;28;19909;-75
2021/07/04 07:58:26;;;;;;;;;;;22.40;99.90;;;;;;5032776;28;19920;-75
2021/07/04 08:00:51;;;;;;;;;;;22.00;99.90;;;;;;5034451;28;19909;-75
2021/07/04 08:03:17;;;;;;;;;;;21.70;99.90;;;;;;5037748;28;19940;-75
2021/07/04 08:05:43;;;;;;;;;;;21.50;99.90;;;;;;5034665;28;20277;-75
2021/07/04 08:08:08;;;;;;;;;;;21.80;99.90;;;;;;5035302;28;19909;-75
2021/07/04 08:10:34;;;;;;;;;;;21.90;99.90;;;;;;5042035;28;19913;-74
2021/07/04 08:13:00;;;;;;;;;;;22.00;99.90;;;;;;5036963;28;19909;-75
2021/07/04 08:15:25;;;;;;;;;;;22.10;99.90;;;;;;5033708;28;19917;-75
2021/07/04 08:17:51;;;;;;;;;;;22.10;99.90;;;;;;5035044;28;19916;-75
2021/07/04 08:20:16;;;;;;;;;;;21.90;99.90;;;;;;5045161;28;19949;-75
2021/07/04 08:22:42;;;;;;;;;;;21.90;99.90;;;;;;5034097;28;19920;-76
2021/07/04 08:25:08;;;;;;;;;;;21.80;99.90;;;;;;5034565;28;19909;-75
2021/07/04 08:27:34;;;;;;;;;;;22.00;99.90;;;;;;5028352;28;19909;-75
2021/07/04 08:29:59;;;;;;;;;;;22.30;99.90;;;;;;5035565;28;19909;-75
2021/07/04 08:32:25;;;;;;;;;;;22.40;99.90;;;;;;5033114;28;19917;-75
2021/07/04 08:34:50;;;;;;;;;;;22.20;99.90;;;;;;5040547;28;19909;-74
2021/07/04 08:37:16;;;;;;;;;;;22.00;99.90;;;;;;5035436;28;19913;-75
2021/07/04 08:39:42;;;;;;;;;;;22.00;99.90;;;;;;5034919;28;19959;-75
2021/07/04 08:42:07;;;;;;;;;;;22.10;99.90;;;;;;5030142;28;19931;-75
2021/07/04 08:44:33;;;;;;;;;;;22.00;99.90;;;;;;5045405;28;19909;-75
2021/07/04 08:46:59;;;;;;;;;;;22.00;99.90;;;;;;5034582;28;19924;-74
2021/07/04 08:49:24;;;;;;;;;;;22.10;99.90;;;;;;5034665;28;19916;-75
2021/07/04 08:51:50;;;;;;;;;;;22.10;99.90;;;;;;5034069;28;20320;-76
2021/07/04 08:54:16;;;;;;;;;;;22.40;99.90;;;;;;5040368;28;19908;-76
2021/07/04 08:56:42;;;;;;;;;;;22.70;99.90;;;;;;5045065;28;19913;-76
2021/07/04 08:59:07;;;;;;;;;;;23.00;99.90;;;;;;5033386;28;19932;-77
2021/07/04 09:01:33;;;;;;;;;;;22.80;99.90;;;;;;5036098;28;19934;-77
2021/07/04 09:04:09;;;;;;;;;;;22.60;99.90;;;;;;5037662;28;19995;-77
2021/07/04 09:06:36;;;;;;;;;;;22.40;99.90;;;;;;5030506;28;19909;-77
2021/07/04 09:09:24;;;;;;;;;;;22.30;99.90;;;;;;5032194;28;19909;-77
2021/07/04 09:11:51;;;;;;;;;;;22.30;99.90;;;;;;5015011;28;19913;-77
2021/07/04 09:14:17;;;;;;;;;;;22.60;99.90;;;;;;5025428;28;19916;-77
2021/07/04 09:16:48;;;;;;;;;;;23.20;99.90;;;;;;5032768;28;19913;-77
2021/07/04 09:19:15;;;;;;;;;;;23.40;99.90;;;;;;5034586;28;19905;-76
2021/07/04 09:21:41;;;;;;;;;;;23.20;99.90;;;;;;5033009;28;19909;-76
2021/07/04 09:24:30;;;;;;;;;;;23.00;99.90;;;;;;5031377;28;19916;-76
2021/07/04 09:26:56;;;;;;;;;;;22.90;99.90;;;;;;5029058;28;19913;-78
2021/07/04 09:29:41;;;;;;;;;;;23.00;99.90;;;;;;5029412;28;19913;-77
2021/07/04 09:32:13;;;;;;;;;;;23.30;99.90;;;;;;5028585;28;19917;-77
2021/07/04 09:34:39;;;;;;;;;;;23.80;99.90;;;;;;5031460;28;19915;-77
2021/07/04 09:37:04;;;;;;;;;;;24.30;99.90;;;;;;5045233;28;20015;-77
2021/07/04 09:39:31;;;;;;;;;;;24.40;99.90;;;;;;5031972;28;19909;-77
2021/07/04 09:42:00;;;;;;;;;;;24.40;99.90;;;;;;5032038;28;19948;-77
2021/07/04 09:44:26;;;;;;;;;;;24.50;99.90;;;;;;5028373;28;19909;-78
2021/07/04 09:47:10;;;;;;;;;;;24.60;99.90;;;;;;5035773;28;19928;-77
2021/07/04 09:49:35;;;;;;;;;;;24.70;99.90;;;;;;5031972;28;19913;-77
2021/07/04 09:52:14;;;;;;;;;;;24.40;99.90;;;;;;5030607;28;19955;-77
2021/07/04 09:54:57;;;;;;;;;;;24.20;99.90;;;;;;5032054;28;19996;-77
2021/07/04 09:57:23;;;;;;;;;;;23.90;99.90;;;;;;5031670;28;20335;-76
2021/07/04 09:59:48;;;;;;;;;;;23.80;99.90;;;;;;5037135;28;19917;-77
2021/07/04 10:02:18;;;;;;;;;;;23.80;99.90;;;;;;5030368;28;19909;-77
2021/07/04 10:04:44;;;;;;;;;;;23.80;99.90;;;;;;5029659;28;19931;-76
2021/07/04 10:07:09;;;;;;;;;;;23.80;99.90;;;;;;5036163;28;19909;-76
2021/07/04 10:09:35;;;;;;;;;;;23.90;99.90;;;;;;5032804;28;19908;-77
2021/07/04 10:12:01;;;;;;;;;;;24.00;99.90;;;;;;5036878;28;19944;-76
2021/07/04 10:14:27;;;;;;;;;;;24.10;99.90;;;;;;5034678;28;19955;-76
2021/07/04 10:16:53;;;;;;;;;;;24.40;99.90;;;;;;5036091;28;19991;-77
2021/07/04 10:19:19;;;;;;;;;;;24.60;99.90;;;;;;5037791;28;20361;-76
2021/07/04 10:21:46;;;;;;;;;;;24.90;99.90;;;;;;5035311;28;19909;-77
2021/07/04 10:24:12;;;;;;;;;;;25.20;99.90;;;;;;5043245;28;19912;-77
2021/07/04 10:26:39;;;;;;;;;;;25.70;99.90;;;;;;5040060;28;19909;-77
2021/07/04 10:29:07;;;;;;;;;;;26.00;99.90;;;;;;5036688;28;20003;-77
2021/07/04 10:31:34;;;;;;;;;;;25.90;99.90;;;;;;5036284;28;19995;-77
2021/07/04 10:34:10;;;;;;;;;;;25.40;99.90;;;;;;5032678;28;19909;-77
2021/07/04 10:36:53;;;;;;;;;;;24.80;99.90;;;;;;5039224;28;19909;-78
2021/07/04 10:39:19;;;;;;;;;;;24.40;99.90;;;;;;5030565;28;19992;-76
2021/07/04 10:42:03;;;;;;;;;;;24.60;99.90;;;;;;5038687;28;20399;-76
2021/07/04 10:44:35;;;;;;;;;;;25.30;99.90;;;;;;5050115;28;20254;-76
2021/07/04 10:47:02;;;;;;;;;;;25.70;99.90;;;;;;5038816;28;19917;-76
2021/07/04 10:49:39;;;;;;;;;;;25.70;99.90;;;;;;5036664;28;20269;-76
2021/07/04 10:52:21;;;;;;;;;;;25.60;99.90;;;;;;5040349;28;19909;-76
2021/07/04 10:54:50;;;;;;;;;;;25.40;99.90;;;;;;5046954;28;20633;-76
2021/07/04 10:57:19;;;;;;;;;;;25.40;99.90;;;;;;5036796;28;19913;-76
2021/07/04 10:59:50;;;;;;;;;;;25.50;99.90;;;;;;5036847;28;19909;-76
2021/07/04 11:02:36;;;;;;;;;;;25.70;99.90;;;;;;5035234;28;19909;-77
2021/07/04 11:05:01;;;;;;;;;;;25.90;99.90;;;;;;5035556;28;19913;-76
2021/07/04 11:07:47;;;;;;;;;;;25.80;99.90;;;;;;5037351;28;19909;-76
2021/07/04 11:10:16;;;;;;;;;;;25.80;99.90;;;;;;5035461;28;20022;-76
2021/07/04 11:12:42;;;;;;;;;;;25.40;99.90;;;;;;5034207;28;20362;-77
2021/07/04 11:15:10;;;;;;;;;;;24.90;99.90;;;;;;5039522;28;19996;-75
2021/07/04 11:17:54;;;;;;;;;;;24.60;99.90;;;;;;5035935;28;19913;-75
2021/07/04 11:20:20;;;;;;;;;;;24.50;99.90;;;;;;5036354;28;20285;-75
2021/07/04 11:22:57;;;;;;;;;;;24.30;99.90;;;;;;5036231;28;19909;-75
2021/07/04 11:25:24;;;;;;;;;;;24.20;99.90;;;;;;5033052;28;19909;-75
2021/07/04 11:28:08;;;;;;;;;;;24.00;99.90;;;;;;5035364;28;19959;-75
2021/07/04 11:30:34;;;;;;;;;;;23.90;99.90;;;;;;5036664;28;20472;-75
2021/07/04 11:36:16;;;;;;;;;;;23.80;99.90;;;;;;5018327;28;19916;-76
2021/07/04 11:38:41;;;;;;;;;;;23.60;99.90;;;;;;5035785;28;19913;-76
2021/07/04 11:41:30;;;;;;;;;;;23.50;99.90;;;;;;5034840;28;19939;-75
2021/07/04 11:43:57;;;;;;;;;;;23.40;99.90;;;;;;5025838;28;20271;-75
2021/07/04 11:46:24;;;;;;;;;;;23.40;99.90;;;;;;5038137;28;19921;-76
2021/07/04 11:48:54;;;;;;;;;;;23.30;99.90;;;;;;5035796;28;20340;-75
2021/07/04 11:51:29;;;;;;;;;;;23.20;99.90;;;;;;5043098;28;20012;-75
2021/07/04 11:53:56;;;;;;;;;;;23.10;99.90;;;;;;5034886;28;19912;-76
2021/07/04 11:56:22;;;;;;;;;;;23.00;99.90;;;;;;5033108;28;19913;-76
2021/07/04 11:58:47;;;;;;;;;;;23.20;99.90;;;;;;5034496;28;20375;-76
2021/07/04 12:01:17;;;;;;;;;;;23.30;99.90;;;;;;5033453;28;19945;-75
2021/07/04 12:03:46;;;;;;;;;;;23.30;99.90;;;;;;5032188;28;20559;-75
2021/07/04 12:06:11;;;;;;;;;;;23.30;99.90;;;;;;5034702;28;19928;-75
2021/07/04 12:08:53;;;;;;;;;;;23.50;99.90;;;;;;5033617;28;20324;-77
2021/07/04 12:11:18;;;;;;;;;;;23.60;99.90;;;;;;5033519;28;19970;-74
2021/07/04 12:13:46;;;;;;;;;;;23.80;99.90;;;;;;5036335;28;20328;-74
2021/07/04 12:16:11;;;;;;;;;;;23.60;99.90;;;;;;5035435;28;19912;-73
2021/07/04 12:18:37;;;;;;;;;;;23.50;99.90;;;;;;5039631;28;19913;-74
2021/07/04 12:21:04;;;;;;;;;;;23.30;99.90;;;;;;5033142;28;20111;-75
2021/07/04 12:23:30;;;;;;;;;;;23.30;99.90;;;;;;5024239;28;19909;-74
2021/07/04 12:25:56;;;;;;;;;;;23.20;99.90;;;;;;5039524;28;20292;-74
2021/07/04 12:28:23;;;;;;;;;;;23.10;99.90;;;;;;5035867;28;19909;-78
2021/07/04 12:30:50;;;;;;;;;;;22.90;99.90;;;;;;5034497;28;19959;-78
2021/07/04 12:33:20;;;;;;;;;;;23.00;99.90;;;;;;5035712;28;19916;-75
2021/07/04 12:35:47;;;;;;;;;;;23.20;99.90;;;;;;5035791;28;19996;-84
2021/07/04 12:38:23;;;;;;;;;;;23.30;99.90;;;;;;5032112;28;19921;-80
2021/07/04 12:40:55;;;;;;;;;;;23.40;99.90;;;;;;5050353;28;19944;-79
2021/07/04 12:43:28;;;;;;;;;;;23.70;99.90;;;;;;5037097;28;19908;-81
2021/07/04 12:45:54;;;;;;;;;;;23.80;99.90;;;;;;5036434;28;19908;-81
2021/07/04 12:48:21;;;;;;;;;;;23.90;99.90;;;;;;5032527;28;20374;-82
2021/07/04 12:50:50;;;;;;;;;;;23.90;99.90;;;;;;5040051;28;19908;-81
2021/07/04 12:53:15;;;;;;;;;;;23.80;99.90;;;;;;5032104;28;20357;-75
2021/07/04 12:55:45;;;;;;;;;;;23.70;99.90;;;;;;5034868;28;19916;-77
2021/07/04 12:58:34;;;;;;;;;;;23.60;99.90;;;;;;5034252;28;19913;-75
2021/07/04 13:01:18;;;;;;;;;;;23.50;99.90;;;;;;5032794;28;19909;-75
2021/07/04 13:03:45;;;;;;;;;;;23.70;99.90;;;;;;5034234;28;19997;-78
2021/07/04 13:06:30;;;;;;;;;;;23.50;99.90;;;;;;5035532;28;19916;-76
2021/07/04 13:08:56;;;;;;;;;;;23.40;99.90;;;;;;5035708;28;20315;-79
2021/07/04 13:11:22;;;;;;;;;;;23.60;99.90;;;;;;5051020;28;20455;-79
2021/07/04 13:14:04;;;;;;;;;;;23.50;99.90;;;;;;5048864;28;19909;-79
2021/07/04 13:16:30;;;;;;;;;;;23.50;99.90;;;;;;5032394;28;20273;-80
2021/07/04 13:18:56;;;;;;;;;;;23.30;99.90;;;;;;5048994;28;19917;-78
2021/07/04 13:21:32;;;;;;;;;;;23.20;99.90;;;;;;5032788;28;19918;-74
2021/07/04 13:24:16;;;;;;;;;;;23.40;99.90;;;;;;5047375;28;19932;-77
2021/07/04 13:26:42;;;;;;;;;;;23.50;99.90;;;;;;5031202;28;19944;-82
2021/07/04 13:29:14;;;;;;;;;;;23.40;99.90;;;;;;5032051;28;19920;-78
2021/07/04 13:31:40;;;;;;;;;;;23.30;99.90;;;;;;5040498;28;19955;-79
2021/07/04 13:34:21;;;;;;;;;;;23.50;99.90;;;;;;5033804;28;20269;-81
2021/07/04 13:36:54;;;;;;;;;;;23.60;99.90;;;;;;5047510;28;19995;-80
2021/07/04 13:39:19;;;;;;;;;;;23.70;99.90;;;;;;5036488;28;19916;-80
2021/07/04 13:41:45;;;;;;;;;;;23.50;99.90;;;;;;5033129;28;19909;-80
2021/07/04 13:44:10;;;;;;;;;;;23.30;99.90;;;;;;5030954;28;19937;-74
2021/07/04 13:46:36;;;;;;;;;;;23.20;99.90;;;;;;5033245;28;20007;-74
2021/07/04 13:49:02;;;;;;;;;;;23.00;99.90;;;;;;5036762;28;19927;-75
2021/07/04 13:51:27;;;;;;;;;;;22.90;99.90;;;;;;5035263;28;20425;-75
2021/07/04 13:53:53;;;;;;;;;;;22.90;99.90;;;;;;5033979;28;19909;-75
2021/07/04 13:56:18;;;;;;;;;;;22.90;99.90;;;;;;5035302;28;20388;-75
2021/07/04 13:58:44;;;;;;;;;;;22.70;99.90;;;;;;5034420;28;19916;-74
2021/07/04 14:01:09;;;;;;;;;;;22.70;99.90;;;;;;5032341;28;20262;-75
2021/07/04 14:03:35;;;;;;;;;;;22.50;99.90;;;;;;5032316;28;19944;-75
2021/07/04 14:06:00;;;;;;;;;;;22.50;99.90;;;;;;5034730;28;19909;-75
2021/07/04 14:08:26;;;;;;;;;;;22.40;99.90;;;;;;5038043;28;19916;-76
2021/07/04 14:10:52;;;;;;;;;;;22.30;99.90;;;;;;5036708;28;19913;-75
2021/07/04 14:13:19;;;;;;;;;;;21.90;99.90;;;;;;5036650;28;19909;-76
2021/07/04 14:15:45;;;;;;;;;;;21.60;99.90;;;;;;5046589;28;19913;-76
2021/07/04 14:18:10;;;;;;;;;;;21.20;99.90;;;;;;5040900;28;20055;-76
2021/07/04 14:20:36;;;;;;;;;;;21.00;99.90;;;;;;5039394;28;20394;-76
2021/07/04 14:23:01;;;;;;;;;;;20.90;99.90;;;;;;5043523;28;19917;-76